Time;durP1;ratioP1;P1;durP2;ratioP2;P2;SDS_P1;SDS_P2;PMS_P1;PMS_P2;Temp;Humidity;BMP_temperature;BMP_pressure;BME280_temperature;BME280_humidity;BME280_pressure;Samples;Min_cycle;Max_cycle;Signal;HPM_P1;HPM_P2
2023/07/23 00:01:21;;;;;;;6.45;3.45;;;;;;;;;;5035147;28;20025;-77
2023/07/23 00:03:46;;;;;;;6.75;3.50;;;;;;;;;;5034590;28;20048;-77
2023/07/23 00:06:13;;;;;;;8.60;4.05;;;;;;;;;;5033527;28;20077;-77
2023/07/23 00:08:38;;;;;;;6.00;3.35;;;;;;;;;;5034594;28;20155;-77
2023/07/23 00:11:03;;;;;;;6.65;3.50;;;;;;;;;;5029877;28;20025;-77
2023/07/23 00:13:29;;;;;;;7.38;3.63;;;;;;;;;;5034709;28;20028;-77
2023/07/23 00:15:54;;;;;;;5.97;3.58;;;;;;;;;;5033496;28;20109;-77
2023/07/23 00:18:19;;;;;;;7.30;3.58;;;;;;;;;;5033109;28;20056;-77
2023/07/23 00:20:46;;;;;;;6.07;3.42;;;;;;;;;;5033348;28;20080;-77
2023/07/23 00:23:11;;;;;;;7.78;3.70;;;;;;;;;;5034472;28;20025;-77
2023/07/23 00:25:37;;;;;;;6.63;3.58;;;;;;;;;;5034419;28;20103;-76
2023/07/23 00:28:02;;;;;;;6.63;3.83;;;;;;;;;;5029399;28;20108;-77
2023/07/23 00:30:28;;;;;;;8.57;4.35;;;;;;;;;;5033067;28;20026;-77
2023/07/23 00:32:53;;;;;;;7.35;4.00;;;;;;;;;;5034407;28;20021;-77
2023/07/23 00:35:20;;;;;;;6.22;3.60;;;;;;;;;;5034353;28;20466;-76
2023/07/23 00:37:45;;;;;;;6.80;3.97;;;;;;;;;;5034249;28;20057;-76
2023/07/23 00:40:11;;;;;;;6.85;3.80;;;;;;;;;;5034053;28;20260;-77
2023/07/23 00:42:37;;;;;;;5.65;3.58;;;;;;;;;;5033115;28;20044;-77
2023/07/23 00:45:03;;;;;;;6.75;3.60;;;;;;;;;;5034246;28;20033;-77
2023/07/23 00:47:28;;;;;;;7.95;3.80;;;;;;;;;;5032740;28;20021;-77
2023/07/23 00:49:54;;;;;;;9.07;4.25;;;;;;;;;;5032757;28;20025;-76
2023/07/23 00:52:19;;;;;;;5.40;3.50;;;;;;;;;;5033762;28;20056;-77
2023/07/23 00:54:45;;;;;;;6.57;3.78;;;;;;;;;;5033977;28;20021;-76
2023/07/23 00:57:11;;;;;;;7.25;3.80;;;;;;;;;;5033991;28;20363;-76
2023/07/23 00:59:40;;;;;;;8.15;4.13;;;;;;;;;;5032877;28;20397;-77
2023/07/23 01:02:05;;;;;;;8.43;4.57;;;;;;;;;;5036091;28;20029;-77
2023/07/23 01:04:32;;;;;;;6.45;3.75;;;;;;;;;;5033517;28;20029;-77
2023/07/23 01:07:01;;;;;;;5.03;3.45;;;;;;;;;;5033354;28;20049;-77
2023/07/23 01:09:27;;;;;;;5.78;3.80;;;;;;;;;;5032177;28;20458;-77
2023/07/23 01:11:53;;;;;;;6.18;3.28;;;;;;;;;;5032974;28;20048;-77
2023/07/23 01:14:19;;;;;;;7.47;3.90;;;;;;;;;;5032107;28;20465;-77
2023/07/23 01:16:45;;;;;;;5.60;3.45;;;;;;;;;;5032140;28;20021;-76
2023/07/23 01:19:12;;;;;;;6.25;3.55;;;;;;;;;;5030937;28;20021;-77
2023/07/23 01:21:38;;;;;;;6.03;3.03;;;;;;;;;;5033359;28;20021;-77
2023/07/23 01:24:04;;;;;;;6.68;3.90;;;;;;;;;;5032035;28;20026;-77
2023/07/23 01:26:29;;;;;;;5.53;3.35;;;;;;;;;;5032136;28;20035;-76
2023/07/23 01:28:54;;;;;;;5.78;3.42;;;;;;;;;;5031915;28;20025;-76
2023/07/23 01:31:20;;;;;;;7.43;3.85;;;;;;;;;;5032654;28;20029;-77
2023/07/23 01:33:46;;;;;;;7.10;3.63;;;;;;;;;;5032964;28;20025;-77
2023/07/23 01:36:13;;;;;;;5.88;3.63;;;;;;;;;;5031679;28;20021;-77
2023/07/23 01:38:38;;;;;;;5.75;3.50;;;;;;;;;;5031960;28;20025;-76
2023/07/23 01:41:04;;;;;;;7.05;3.70;;;;;;;;;;5032942;28;20542;-77
2023/07/23 01:43:29;;;;;;;5.55;3.47;;;;;;;;;;5033063;28;20025;-77
2023/07/23 01:45:55;;;;;;;5.70;3.20;;;;;;;;;;5032869;28;20106;-77
2023/07/23 01:48:22;;;;;;;6.55;3.35;;;;;;;;;;5031798;28;20489;-77
2023/07/23 01:50:48;;;;;;;6.32;3.92;;;;;;;;;;5032753;28;20021;-77
2023/07/23 01:53:13;;;;;;;5.65;3.15;;;;;;;;;;5030652;28;20017;-76
2023/07/23 01:55:38;;;;;;;6.30;3.47;;;;;;;;;;5031426;28;20028;-76
2023/07/23 01:58:04;;;;;;;5.93;3.50;;;;;;;;;;5032909;28;20091;-77
2023/07/23 02:00:29;;;;;;;5.15;3.60;;;;;;;;;;5032617;28;20065;-76
2023/07/23 02:02:54;;;;;;;7.43;3.70;;;;;;;;;;5031185;28;20021;-77
2023/07/23 02:05:23;;;;;;;7.07;3.80;;;;;;;;;;5032703;28;20385;-77
2023/07/23 02:07:48;;;;;;;6.18;3.70;;;;;;;;;;5020933;28;20037;-76
2023/07/23 02:10:14;;;;;;;5.38;3.50;;;;;;;;;;5031316;28;20082;-77
2023/07/23 02:12:39;;;;;;;6.32;3.65;;;;;;;;;;5032580;28;20079;-77
2023/07/23 02:15:05;;;;;;;8.75;3.50;;;;;;;;;;5032278;28;20059;-76
2023/07/23 02:17:31;;;;;;;6.18;3.75;;;;;;;;;;5031075;28;20025;-76
2023/07/23 02:19:56;;;;;;;6.40;3.75;;;;;;;;;;5032382;28;20109;-77
2023/07/23 02:22:22;;;;;;;6.97;3.40;;;;;;;;;;5030974;28;20037;-77
2023/07/23 02:24:47;;;;;;;6.20;3.50;;;;;;;;;;5031851;28;20029;-77
2023/07/23 02:27:14;;;;;;;5.70;3.80;;;;;;;;;;5024352;28;20032;-77
2023/07/23 02:29:39;;;;;;;6.60;3.55;;;;;;;;;;5030844;28;20496;-77
2023/07/23 02:32:06;;;;;;;5.30;3.58;;;;;;;;;;5031997;28;20048;-76
2023/07/23 02:34:31;;;;;;;8.15;3.50;;;;;;;;;;5032263;28;20396;-76
2023/07/23 02:36:57;;;;;;;7.32;3.58;;;;;;;;;;5030973;28;20022;-77
2023/07/23 02:39:22;;;;;;;6.60;3.90;;;;;;;;;;5032343;28;20124;-76
2023/07/23 02:41:47;;;;;;;5.95;3.67;;;;;;;;;;5031004;28;20017;-77
2023/07/23 02:44:13;;;;;;;8.07;3.60;;;;;;;;;;5028172;28;20029;-77
2023/07/23 02:46:39;;;;;;;6.50;3.80;;;;;;;;;;5032277;28;20021;-76
2023/07/23 02:49:04;;;;;;;6.38;3.42;;;;;;;;;;5032060;28;20018;-76
2023/07/23 02:51:30;;;;;;;9.82;4.40;;;;;;;;;;5030573;28;20021;-77
2023/07/23 02:53:56;;;;;;;7.15;4.32;;;;;;;;;;5031989;28;20104;-77
2023/07/23 02:56:21;;;;;;;6.22;3.50;;;;;;;;;;5030799;28;20036;-77
2023/07/23 02:58:46;;;;;;;5.40;3.40;;;;;;;;;;5030978;28;20104;-77
2023/07/23 03:01:12;;;;;;;6.75;3.80;;;;;;;;;;5029777;28;20025;-77
2023/07/23 03:03:40;;;;;;;7.43;3.90;;;;;;;;;;5031930;28;20027;-77
2023/07/23 03:06:06;;;;;;;6.05;3.85;;;;;;;;;;5030417;28;20021;-76
2023/07/23 03:08:31;;;;;;;6.55;4.13;;;;;;;;;;5031985;28;20464;-76
2023/07/23 03:10:57;;;;;;;8.30;3.83;;;;;;;;;;5031818;28;20025;-77
2023/07/23 03:13:22;;;;;;;6.13;3.65;;;;;;;;;;5031853;28;20167;-77
2023/07/23 03:15:48;;;;;;;5.97;3.90;;;;;;;;;;5030548;28;20021;-77
2023/07/23 03:18:13;;;;;;;6.43;4.22;;;;;;;;;;5028115;28;20075;-76
2023/07/23 03:20:38;;;;;;;5.47;3.78;;;;;;;;;;5031952;28;20021;-76
2023/07/23 03:23:04;;;;;;;7.00;4.30;;;;;;;;;;5030564;28;20030;-76
2023/07/23 03:25:29;;;;;;;6.75;3.85;;;;;;;;;;5030613;28;20397;-76
2023/07/23 03:27:59;;;;;;;6.72;4.13;;;;;;;;;;5031623;28;20026;-76
2023/07/23 03:30:25;;;;;;;5.82;3.88;;;;;;;;;;5030312;28;20028;-76
2023/07/23 03:32:52;;;;;;;7.93;4.40;;;;;;;;;;5031556;28;20127;-76
2023/07/23 03:35:18;;;;;;;5.50;3.80;;;;;;;;;;5030582;28;20401;-76
2023/07/23 03:37:43;;;;;;;6.10;3.80;;;;;;;;;;5034119;28;20029;-76
2023/07/23 03:40:09;;;;;;;5.57;3.88;;;;;;;;;;5034235;28;20026;-77
2023/07/23 03:42:34;;;;;;;7.00;4.35;;;;;;;;;;5033937;28;20043;-76
2023/07/23 03:45:00;;;;;;;7.00;3.65;;;;;;;;;;5035403;28;20027;-76
2023/07/23 03:47:25;;;;;;;8.40;4.22;;;;;;;;;;5036643;28;20041;-77
2023/07/23 03:49:50;;;;;;;5.93;3.50;;;;;;;;;;5034827;28;20079;-76
2023/07/23 03:52:16;;;;;;;7.43;3.97;;;;;;;;;;5034850;28;20100;-76
2023/07/23 03:54:41;;;;;;;5.72;3.60;;;;;;;;;;5033876;28;20026;-77
2023/07/23 03:57:07;;;;;;;7.00;3.95;;;;;;;;;;5035184;28;20045;-76
2023/07/23 03:59:38;;;;;;;6.85;3.67;;;;;;;;;;5034982;28;20029;-77
2023/07/23 04:02:03;;;;;;;6.70;3.45;;;;;;;;;;5034916;28;20420;-76
2023/07/23 04:04:29;;;;;;;4.75;3.15;;;;;;;;;;5034616;28;20028;-77
2023/07/23 04:06:54;;;;;;;5.82;3.63;;;;;;;;;;5034574;28;20412;-76
2023/07/23 04:09:20;;;;;;;5.82;3.38;;;;;;;;;;5025546;28;20108;-76
2023/07/23 04:11:46;;;;;;;7.30;3.20;;;;;;;;;;5031648;28;20029;-75
2023/07/23 04:14:11;;;;;;;5.05;3.13;;;;;;;;;;5027695;28;20049;-76
2023/07/23 04:16:37;;;;;;;5.68;2.95;;;;;;;;;;5034503;28;20022;-77
2023/07/23 04:19:02;;;;;;;6.38;3.00;;;;;;;;;;5033478;28;20070;-77
2023/07/23 04:21:27;;;;;;;5.63;2.88;;;;;;;;;;5034409;28;20025;-76
2023/07/23 04:23:57;;;;;;;4.32;2.55;;;;;;;;;;5034482;28;20029;-77
2023/07/23 04:26:26;;;;;;;4.43;2.65;;;;;;;;;;5032105;28;20029;-76
2023/07/23 04:28:52;;;;;;;4.93;2.67;;;;;;;;;;5033312;28;20477;-76
2023/07/23 04:31:17;;;;;;;5.22;3.00;;;;;;;;;;5032704;28;20036;-77
2023/07/23 04:33:43;;;;;;;4.40;2.72;;;;;;;;;;5034516;28;20025;-77
2023/07/23 04:36:09;;;;;;;4.45;2.63;;;;;;;;;;5034292;28;20112;-76
2023/07/23 04:38:35;;;;;;;6.97;3.13;;;;;;;;;;5034162;28;20024;-77
2023/07/23 04:41:00;;;;;;;5.25;2.95;;;;;;;;;;5034070;28;20017;-76
2023/07/23 04:43:26;;;;;;;7.25;3.20;;;;;;;;;;5031942;28;20465;-77
2023/07/23 04:45:51;;;;;;;3.90;2.40;;;;;;;;;;5031980;28;20022;-76
2023/07/23 04:48:17;;;;;;;7.60;3.40;;;;;;;;;;5033840;28;20067;-76
2023/07/23 04:50:43;;;;;;;6.68;3.25;;;;;;;;;;5032695;28;20030;-77
2023/07/23 04:53:08;;;;;;;5.55;2.80;;;;;;;;;;5032601;28;20478;-76
2023/07/23 04:55:34;;;;;;;7.32;2.80;;;;;;;;;;5032558;28;20056;-76
2023/07/23 04:57:59;;;;;;;5.43;2.80;;;;;;;;;;5032514;28;20037;-76
2023/07/23 05:00:25;;;;;;;6.05;2.78;;;;;;;;;;5033524;28;20028;-77
2023/07/23 05:02:51;;;;;;;5.32;2.85;;;;;;;;;;5033651;28;20022;-77
2023/07/23 05:05:16;;;;;;;6.72;2.90;;;;;;;;;;5033770;28;20029;-77
2023/07/23 05:07:42;;;;;;;5.80;3.00;;;;;;;;;;5033464;28;20029;-76
2023/07/23 05:10:08;;;;;;;4.18;2.58;;;;;;;;;;5032278;28;20017;-77
2023/07/23 05:12:34;;;;;;;5.45;2.75;;;;;;;;;;5033570;28;20048;-77
2023/07/23 05:15:10;;;;;;;5.88;2.80;;;;;;;;;;5033407;28;20017;-77
2023/07/23 05:17:36;;;;;;;4.60;2.65;;;;;;;;;;5033229;28;20029;-77
2023/07/23 05:20:02;;;;;;;5.15;2.80;;;;;;;;;;5033440;28;20024;-76
2023/07/23 05:22:27;;;;;;;5.00;2.65;;;;;;;;;;5033283;28;20036;-77
2023/07/23 05:24:52;;;;;;;5.78;2.88;;;;;;;;;;5032225;28;20056;-76
2023/07/23 05:27:18;;;;;;;5.53;2.92;;;;;;;;;;5031700;28;20017;-77
2023/07/23 05:29:43;;;;;;;5.85;2.80;;;;;;;;;;5032294;28;20499;-76
2023/07/23 05:32:08;;;;;;;5.65;2.80;;;;;;;;;;5035352;28;20025;-77
2023/07/23 05:34:34;;;;;;;6.55;2.97;;;;;;;;;;5031660;28;20028;-76
2023/07/23 05:36:59;;;;;;;5.35;2.72;;;;;;;;;;5033110;28;20056;-76
2023/07/23 05:39:24;;;;;;;5.10;2.67;;;;;;;;;;5031810;28;20025;-76
2023/07/23 05:41:50;;;;;;;6.70;2.83;;;;;;;;;;5033041;28;20101;-76
2023/07/23 05:44:17;;;;;;;4.50;2.40;;;;;;;;;;5032945;28;20072;-76
2023/07/23 05:46:43;;;;;;;5.22;3.00;;;;;;;;;;5031499;28;20029;-76
2023/07/23 05:49:08;;;;;;;4.93;3.00;;;;;;;;;;5031229;28;20354;-77
2023/07/23 05:51:33;;;;;;;4.30;2.70;;;;;;;;;;5023811;28;20033;-76
2023/07/23 05:53:59;;;;;;;6.05;2.90;;;;;;;;;;5032792;28;20492;-76
2023/07/23 05:56:24;;;;;;;5.65;2.90;;;;;;;;;;5033051;28;20032;-76
2023/07/23 05:58:49;;;;;;;7.18;2.70;;;;;;;;;;5032367;28;20112;-76
2023/07/23 06:01:15;;;;;;;5.07;2.53;;;;;;;;;;5032642;28;20021;-76
2023/07/23 06:03:40;;;;;;;6.28;3.00;;;;;;;;;;5031446;28;20179;-76
2023/07/23 06:06:05;;;;;;;6.15;3.13;;;;;;;;;;5032229;28;20033;-77
2023/07/23 06:08:31;;;;;;;4.57;2.67;;;;;;;;;;5026302;28;20027;-76
2023/07/23 06:10:56;;;;;;;5.95;2.70;;;;;;;;;;5031588;28;20476;-76
2023/07/23 06:13:22;;;;;;;5.63;2.90;;;;;;;;;;5032284;28;20052;-77
2023/07/23 06:15:47;;;;;;;4.57;2.60;;;;;;;;;;5032640;28;20382;-76
2023/07/23 06:18:12;;;;;;;7.55;2.97;;;;;;;;;;5031011;28;20021;-77
2023/07/23 06:20:38;;;;;;;5.15;2.75;;;;;;;;;;5032397;28;20537;-76
2023/07/23 06:23:03;;;;;;;7.75;3.00;;;;;;;;;;5032397;28;20091;-76
2023/07/23 06:25:28;;;;;;;6.13;2.83;;;;;;;;;;5030669;28;20025;-76
2023/07/23 06:27:54;;;;;;;6.25;3.13;;;;;;;;;;5030886;28;20017;-76
2023/07/23 06:30:19;;;;;;;5.65;3.15;;;;;;;;;;5031071;28;20388;-77
2023/07/23 06:32:45;;;;;;;8.50;3.10;;;;;;;;;;5032127;28;20060;-75
2023/07/23 06:35:10;;;;;;;5.05;3.17;;;;;;;;;;5032334;28;20025;-76
2023/07/23 06:37:38;;;;;;;6.70;3.30;;;;;;;;;;5032351;28;20048;-76
2023/07/23 06:40:04;;;;;;;6.50;3.22;;;;;;;;;;5030889;28;20025;-76
2023/07/23 06:42:30;;;;;;;5.10;3.05;;;;;;;;;;5030871;28;20477;-76
2023/07/23 06:44:55;;;;;;;4.88;2.60;;;;;;;;;;5030958;28;20028;-76
2023/07/23 06:47:21;;;;;;;5.25;2.70;;;;;;;;;;5030728;28;20216;-76
2023/07/23 06:49:46;;;;;;;4.93;2.72;;;;;;;;;;5031198;28;20030;-76
2023/07/23 06:52:12;;;;;;;4.80;2.83;;;;;;;;;;5030866;28;20021;-76
2023/07/23 06:54:40;;;;;;;5.88;2.72;;;;;;;;;;5031024;28;20111;-76
2023/07/23 06:57:06;;;;;;;6.35;3.00;;;;;;;;;;5030186;28;20031;-76
2023/07/23 06:59:32;;;;;;;4.80;2.60;;;;;;;;;;5038374;28;20105;-77
2023/07/23 07:01:57;;;;;;;4.95;2.63;;;;;;;;;;5031904;28;20022;-76
2023/07/23 07:04:22;;;;;;;4.95;2.78;;;;;;;;;;5030586;28;20237;-76
2023/07/23 07:06:48;;;;;;;8.20;3.47;;;;;;;;;;5031803;28;20045;-76
2023/07/23 07:09:13;;;;;;;4.07;2.65;;;;;;;;;;5032457;28;20036;-76
2023/07/23 07:11:39;;;;;;;5.03;2.97;;;;;;;;;;5034536;28;20029;-77
2023/07/23 07:14:04;;;;;;;5.35;2.97;;;;;;;;;;5035823;28;20040;-76
2023/07/23 07:16:30;;;;;;;4.20;2.65;;;;;;;;;;5029101;28;20445;-76
2023/07/23 07:18:55;;;;;;;4.20;2.72;;;;;;;;;;5034416;28;20113;-76
2023/07/23 07:21:21;;;;;;;6.40;3.15;;;;;;;;;;5035705;28;20052;-77
2023/07/23 07:23:46;;;;;;;4.20;2.95;;;;;;;;;;5034580;28;20057;-75
2023/07/23 07:26:11;;;;;;;5.68;3.20;;;;;;;;;;5035507;28;20030;-76
2023/07/23 07:28:37;;;;;;;5.70;2.95;;;;;;;;;;5033495;28;20538;-76
2023/07/23 07:31:03;;;;;;;4.38;2.83;;;;;;;;;;5035550;28;20021;-76
2023/07/23 07:33:29;;;;;;;6.47;3.15;;;;;;;;;;5034206;28;20385;-76
2023/07/23 07:35:59;;;;;;;4.57;3.03;;;;;;;;;;5034273;28;20021;-76
2023/07/23 07:38:26;;;;;;;4.50;2.88;;;;;;;;;;5030351;28;20029;-76
2023/07/23 07:40:52;;;;;;;6.80;2.70;;;;;;;;;;5034352;28;20056;-76
2023/07/23 07:43:18;;;;;;;4.28;2.70;;;;;;;;;;5033930;28;20057;-76
2023/07/23 07:45:48;;;;;;;5.18;2.80;;;;;;;;;;5034188;28;20033;-76
2023/07/23 07:48:14;;;;;;;4.93;3.00;;;;;;;;;;5033154;28;20025;-76
2023/07/23 07:50:39;;;;;;;7.75;3.00;;;;;;;;;;5030586;28;20021;-76
2023/07/23 07:53:05;;;;;;;5.20;2.90;;;;;;;;;;5035199;28;20374;-76
2023/07/23 07:55:30;;;;;;;6.05;2.97;;;;;;;;;;5033729;28;20051;-76
2023/07/23 07:57:56;;;;;;;5.07;2.75;;;;;;;;;;5036076;28;20547;-76
2023/07/23 08:00:21;;;;;;;5.00;2.72;;;;;;;;;;5017070;28;20021;-76
2023/07/23 08:02:47;;;;;;;5.95;3.00;;;;;;;;;;5034691;28;20030;-76
2023/07/23 08:05:13;;;;;;;5.78;3.10;;;;;;;;;;5034182;28;20028;-76
2023/07/23 08:07:40;;;;;;;4.22;2.72;;;;;;;;;;5033433;28;20033;-76
2023/07/23 08:10:06;;;;;;;6.80;3.38;;;;;;;;;;5034685;28;20079;-76
2023/07/23 08:12:33;;;;;;;4.95;3.05;;;;;;;;;;5034495;28;20033;-76
2023/07/23 08:14:59;;;;;;;5.28;2.95;;;;;;;;;;5034756;28;20025;-76
2023/07/23 08:17:25;;;;;;;6.35;3.30;;;;;;;;;;5033271;28;20151;-76
2023/07/23 08:19:51;;;;;;;5.55;3.35;;;;;;;;;;5033337;28;20552;-76
2023/07/23 08:22:16;;;;;;;5.47;3.03;;;;;;;;;;5032166;28;20029;-75
2023/07/23 08:24:42;;;;;;;8.15;3.65;;;;;;;;;;5033309;28;20033;-76
2023/07/23 08:27:08;;;;;;;5.75;2.97;;;;;;;;;;5033356;28;20017;-76
2023/07/23 08:29:37;;;;;;;6.00;3.17;;;;;;;;;;5033904;28;20091;-76
2023/07/23 08:32:03;;;;;;;5.13;2.90;;;;;;;;;;5033185;28;20111;-76
2023/07/23 08:34:28;;;;;;;6.18;3.17;;;;;;;;;;5033099;28;20485;-76
2023/07/23 08:36:54;;;;;;;5.40;2.60;;;;;;;;;;5032850;28;20029;-76
2023/07/23 08:39:21;;;;;;;7.63;3.20;;;;;;;;;;5032453;28;20029;-75
2023/07/23 08:42:16;;;;;;;5.47;3.38;;;;;;;;;;5034610;28;20025;-76
2023/07/23 08:45:06;;;;;;;6.20;3.22;;;;;;;;;;5032671;28;20056;-76
2023/07/23 08:47:37;;;;;;;6.53;2.78;;;;;;;;;;5032920;28;20029;-76
2023/07/23 08:50:03;;;;;;;5.28;2.95;;;;;;;;;;5032647;28;20607;-76
2023/07/23 08:52:31;;;;;;;7.00;3.30;;;;;;;;;;5033064;28;20041;-75
2023/07/23 08:54:56;;;;;;;6.78;2.70;;;;;;;;;;5032523;28;20030;-76
2023/07/23 08:57:22;;;;;;;6.88;3.35;;;;;;;;;;5029267;28;20547;-76
2023/07/23 08:59:48;;;;;;;4.90;2.78;;;;;;;;;;5033627;28;20017;-76
2023/07/23 09:02:13;;;;;;;4.85;2.75;;;;;;;;;;5033914;28;20380;-76
2023/07/23 09:04:39;;;;;;;5.05;2.47;;;;;;;;;;5032365;28;20037;-76
2023/07/23 09:07:09;;;;;;;5.78;2.90;;;;;;;;;;5032182;28;20028;-75
2023/07/23 09:09:35;;;;;;;5.32;2.90;;;;;;;;;;5033559;28;20020;-76
2023/07/23 09:12:03;;;;;;;5.72;2.88;;;;;;;;;;5031234;28;20025;-75
2023/07/23 09:14:28;;;;;;;4.22;2.50;;;;;;;;;;5032103;28;20037;-76
2023/07/23 09:16:54;;;;;;;4.25;2.40;;;;;;;;;;5032180;28;20113;-76
2023/07/23 09:19:25;;;;;;;4.55;2.20;;;;;;;;;;5032225;28;20049;-76
2023/07/23 09:21:54;;;;;;;4.00;2.60;;;;;;;;;;5032299;28;20473;-76
2023/07/23 09:24:20;;;;;;;4.93;2.60;;;;;;;;;;5032061;28;20091;-76
2023/07/23 09:26:46;;;;;;;5.60;2.63;;;;;;;;;;5031927;28;20724;-76
2023/07/23 09:29:12;;;;;;;5.38;2.70;;;;;;;;;;5015627;28;20017;-79
2023/07/23 09:31:43;;;;;;;5.05;2.55;;;;;;;;;;5029562;28;20481;-76
2023/07/23 09:34:08;;;;;;;4.28;2.33;;;;;;;;;;5015434;28;20032;-76
2023/07/23 09:36:35;;;;;;;6.18;2.60;;;;;;;;;;5031829;28;20116;-76
2023/07/23 09:39:03;;;;;;;4.03;2.28;;;;;;;;;;5031888;28;20021;-76
2023/07/23 09:41:31;;;;;;;4.65;2.30;;;;;;;;;;5033123;28;20022;-76
2023/07/23 09:44:04;;;;;;;4.38;2.13;;;;;;;;;;5031635;28;20087;-76
2023/07/23 09:46:30;;;;;;;;;;;;;;;;;;5024860;28;20079;-76
2023/07/23 09:48:55;;;;;;;3.45;2.08;;;;;;;;;;5032741;28;20314;-76
2023/07/23 09:51:21;;;;;;;3.38;1.92;;;;;;;;;;5031651;28;20275;-76
2023/07/23 09:53:47;;;;;;;3.92;1.80;;;;;;;;;;5032774;28;20026;-76
2023/07/23 09:56:15;;;;;;;3.38;1.52;;;;;;;;;;5032918;28;20151;-77
2023/07/23 09:58:43;;;;;;;3.30;1.98;;;;;;;;;;5031195;28;20014;-76
2023/07/23 10:01:09;;;;;;;2.83;1.58;;;;;;;;;;5032005;28;20025;-76
2023/07/23 10:03:36;;;;;;;3.50;1.65;;;;;;;;;;5032300;28;20473;-77
2023/07/23 10:06:03;;;;;;;3.30;1.88;;;;;;;;;;5023787;28;20029;-76
2023/07/23 10:08:30;;;;;;;3.33;1.50;;;;;;;;;;5031421;28;20029;-76
2023/07/23 10:10:56;;;;;;;3.97;1.35;;;;;;;;;;5031348;28;20461;-76
2023/07/23 10:13:21;;;;;;;2.65;1.58;;;;;;;;;;5031335;28;20027;-77
2023/07/23 10:15:47;;;;;;;3.08;1.80;;;;;;;;;;5032467;28;20539;-76
2023/07/23 10:18:14;;;;;;;3.17;1.50;;;;;;;;;;5030978;28;20021;-76
2023/07/23 10:20:41;;;;;;;2.55;1.42;;;;;;;;;;5031539;28;20100;-76
2023/07/23 10:23:06;;;;;;;3.33;1.90;;;;;;;;;;5031921;28;20021;-76
2023/07/23 10:25:34;;;;;;;2.60;1.60;;;;;;;;;;5031189;28;20036;-76
2023/07/23 10:28:01;;;;;;;3.33;1.80;;;;;;;;;;5029503;28;20021;-76
2023/07/23 10:30:28;;;;;;;3.13;1.77;;;;;;;;;;5032235;28;20033;-76
2023/07/23 10:33:09;;;;;;;3.35;1.92;;;;;;;;;;5026086;28;20037;-76
2023/07/23 10:35:53;;;;;;;3.13;1.98;;;;;;;;;;5022823;28;20385;-76
2023/07/23 10:38:23;;;;;;;3.40;2.10;;;;;;;;;;5030697;28;20033;-76
2023/07/23 10:40:49;;;;;;;3.90;2.10;;;;;;;;;;5032595;28;20404;-75
2023/07/23 10:43:15;;;;;;;3.50;2.15;;;;;;;;;;5030061;28;20032;-76
2023/07/23 10:45:46;;;;;;;4.00;2.53;;;;;;;;;;5033772;28;20495;-76
2023/07/23 10:48:17;;;;;;;3.25;1.83;;;;;;;;;;5034239;28;20105;-79
2023/07/23 10:51:00;;;;;;;5.15;2.30;;;;;;;;;;5035169;28;20036;-77
2023/07/23 10:53:30;;;;;;;3.55;2.15;;;;;;;;;;5026521;28;20036;-76
2023/07/23 10:55:59;;;;;;;3.67;2.03;;;;;;;;;;5033074;28;20022;-76
2023/07/23 10:58:26;;;;;;;3.17;1.92;;;;;;;;;;5034801;28;20037;-75
2023/07/23 11:00:59;;;;;;;4.22;1.92;;;;;;;;;;5034778;28;20580;-76
2023/07/23 11:03:26;;;;;;;6.25;2.28;;;;;;;;;;5035903;28;20037;-77
2023/07/23 11:05:52;;;;;;;5.35;2.40;;;;;;;;;;5034516;28;20026;-76
2023/07/23 11:08:19;;;;;;;3.78;2.70;;;;;;;;;;5035908;28;20523;-76
2023/07/23 11:11:01;;;;;;;4.40;2.25;;;;;;;;;;5035490;28;20036;-76
2023/07/23 11:13:30;;;;;;;3.70;2.20;;;;;;;;;;5030008;28;20045;-76
2023/07/23 11:15:55;;;;;;;4.72;2.55;;;;;;;;;;5035797;28;20489;-76
2023/07/23 11:18:22;;;;;;;4.18;2.70;;;;;;;;;;5034525;28;20112;-77
2023/07/23 11:20:53;;;;;;;4.30;2.60;;;;;;;;;;5035758;28;20389;-76
2023/07/23 11:23:20;;;;;;;5.18;2.97;;;;;;;;;;5031150;28;20623;-76
2023/07/23 11:25:47;;;;;;;5.63;2.80;;;;;;;;;;5034710;28;20029;-76
2023/07/23 11:28:15;;;;;;;5.07;3.10;;;;;;;;;;5035483;28;20025;-76
2023/07/23 11:30:41;;;;;;;5.53;3.78;;;;;;;;;;5033976;28;20036;-76
2023/07/23 11:33:07;;;;;;;6.03;2.97;;;;;;;;;;5035632;28;20033;-76
2023/07/23 11:35:32;;;;;;;5.68;3.00;;;;;;;;;;5035494;28;20035;-76
2023/07/23 11:38:02;;;;;;;5.88;3.17;;;;;;;;;;5035413;28;20492;-76
2023/07/23 11:40:28;;;;;;;5.53;3.20;;;;;;;;;;5033904;28;20029;-76
2023/07/23 11:42:53;;;;;;;6.47;3.50;;;;;;;;;;5034283;28;20032;-76
2023/07/23 11:45:19;;;;;;;4.70;3.20;;;;;;;;;;5035091;28;20057;-76
2023/07/23 11:47:54;;;;;;;4.90;3.22;;;;;;;;;;5033475;28;20477;-76
2023/07/23 11:50:21;;;;;;;4.82;3.20;;;;;;;;;;5035233;28;20025;-76
2023/07/23 11:52:48;;;;;;;4.95;3.28;;;;;;;;;;5035103;28;20025;-76
2023/07/23 11:55:26;;;;;;;4.65;3.20;;;;;;;;;;5034766;28;20022;-77
2023/07/23 11:57:52;;;;;;;5.20;3.22;;;;;;;;;;5029754;28;20474;-76
2023/07/23 12:00:26;;;;;;;5.60;3.13;;;;;;;;;;5035010;28;20021;-76
2023/07/23 12:02:51;;;;;;;5.00;3.05;;;;;;;;;;5034895;28;20136;-76
2023/07/23 12:05:17;;;;;;;4.90;3.60;;;;;;;;;;5032390;28;20552;-76
2023/07/23 12:07:43;;;;;;;5.03;3.33;;;;;;;;;;5033430;28;20029;-75
2023/07/23 12:10:09;;;;;;;7.13;3.50;;;;;;;;;;5033361;28;20026;-77
2023/07/23 12:12:35;;;;;;;5.50;3.60;;;;;;;;;;5016939;28;20083;-77
2023/07/23 12:15:04;;;;;;;5.53;3.60;;;;;;;;;;5034628;28;20021;-76
2023/07/23 12:17:30;;;;;;;6.45;3.40;;;;;;;;;;5033398;28;20108;-75
2023/07/23 12:19:55;;;;;;;5.53;3.10;;;;;;;;;;5033166;28;20125;-76
2023/07/23 12:22:20;;;;;;;5.30;3.22;;;;;;;;;;5033258;28;20022;-77
2023/07/23 12:24:46;;;;;;;4.85;3.30;;;;;;;;;;5033343;28;20029;-76
2023/07/23 12:27:11;;;;;;;4.55;3.30;;;;;;;;;;5034447;28;20029;-76
2023/07/23 12:29:43;;;;;;;4.88;3.53;;;;;;;;;;5034146;28;20117;-76
2023/07/23 12:32:17;;;;;;;5.88;3.55;;;;;;;;;;5033078;28;20499;-76
2023/07/23 12:34:45;;;;;;;6.78;3.72;;;;;;;;;;5034444;28;20025;-76
2023/07/23 12:37:11;;;;;;;5.97;3.42;;;;;;;;;;5032597;28;20037;-77
2023/07/23 12:39:36;;;;;;;6.35;3.42;;;;;;;;;;5031686;28;20025;-76
2023/07/23 12:42:02;;;;;;;5.93;3.75;;;;;;;;;;5033029;28;20032;-77
2023/07/23 12:44:29;;;;;;;4.63;3.30;;;;;;;;;;5033969;28;20057;-77
2023/07/23 12:46:54;;;;;;;5.50;3.40;;;;;;;;;;5032865;28;20463;-77
2023/07/23 12:49:20;;;;;;;6.20;4.18;;;;;;;;;;5032724;28;20112;-77
2023/07/23 12:51:45;;;;;;;5.97;3.67;;;;;;;;;;5034984;28;20036;-77
2023/07/23 12:54:11;;;;;;;6.13;3.38;;;;;;;;;;5032641;28;20033;-78
2023/07/23 12:56:36;;;;;;;6.28;3.83;;;;;;;;;;5033773;28;20033;-77
2023/07/23 12:59:01;;;;;;;5.88;4.10;;;;;;;;;;5032525;28;20025;-78
2023/07/23 13:01:27;;;;;;;6.22;3.47;;;;;;;;;;5032909;28;20377;-77
2023/07/23 13:03:55;;;;;;;6.03;3.70;;;;;;;;;;5016057;28;20124;-77
2023/07/23 13:06:21;;;;;;;5.72;3.58;;;;;;;;;;5033018;28;20537;-77
2023/07/23 13:08:46;;;;;;;8.05;3.95;;;;;;;;;;5030613;28;20112;-77
2023/07/23 13:11:12;;;;;;;4.95;3.70;;;;;;;;;;5031753;28;20017;-77
2023/07/23 13:13:38;;;;;;;5.75;4.00;;;;;;;;;;5029796;28;20030;-77
2023/07/23 13:16:03;;;;;;;5.70;3.92;;;;;;;;;;5031689;28;20037;-77
2023/07/23 13:18:29;;;;;;;6.35;3.40;;;;;;;;;;5031141;28;20029;-77
2023/07/23 13:20:54;;;;;;;7.10;3.70;;;;;;;;;;5032431;28;20100;-77
2023/07/23 13:23:20;;;;;;;5.55;3.42;;;;;;;;;;5031440;28;20082;-77
2023/07/23 13:25:45;;;;;;;6.63;3.83;;;;;;;;;;5032451;28;20021;-77
2023/07/23 13:28:12;;;;;;;5.30;3.70;;;;;;;;;;5030754;28;20055;-77
2023/07/23 13:30:38;;;;;;;5.20;3.35;;;;;;;;;;5031117;28;20029;-77
2023/07/23 13:33:03;;;;;;;4.90;3.55;;;;;;;;;;5032298;28;20051;-77
2023/07/23 13:35:28;;;;;;;6.90;3.42;;;;;;;;;;5032255;28;20025;-78
2023/07/23 13:37:54;;;;;;;5.63;3.30;;;;;;;;;;5031014;28;20040;-77
2023/07/23 13:40:20;;;;;;;5.82;3.60;;;;;;;;;;5031150;28;20108;-77
2023/07/23 13:42:45;;;;;;;4.15;2.90;;;;;;;;;;5030991;28;20045;-77
2023/07/23 13:45:11;;;;;;;5.15;3.70;;;;;;;;;;5031764;28;20049;-78
2023/07/23 13:47:37;;;;;;;4.93;3.40;;;;;;;;;;5028768;28;20022;-77
2023/07/23 13:50:03;;;;;;;5.22;3.47;;;;;;;;;;5032082;28;20022;-78
2023/07/23 13:52:28;;;;;;;5.00;3.28;;;;;;;;;;5032030;28;20032;-77
2023/07/23 13:54:54;;;;;;;5.40;3.40;;;;;;;;;;5032597;28;20029;-77
2023/07/23 13:57:19;;;;;;;6.85;3.28;;;;;;;;;;5030520;28;20473;-78
2023/07/23 13:59:45;;;;;;;4.78;3.45;;;;;;;;;;5032270;28;20037;-78
2023/07/23 14:02:10;;;;;;;4.95;3.20;;;;;;;;;;5029903;28;20167;-78
2023/07/23 14:04:36;;;;;;;5.15;3.35;;;;;;;;;;5027259;28;20087;-77
2023/07/23 14:07:01;;;;;;;5.53;3.50;;;;;;;;;;4994786;28;1124162;-77
2023/07/23 14:09:26;;;;;;;7.40;3.67;;;;;;;;;;5031351;28;20025;-77
2023/07/23 14:11:52;;;;;;;6.15;3.33;;;;;;;;;;5031194;28;20033;-77
2023/07/23 14:14:17;;;;;;;4.80;3.35;;;;;;;;;;5031288;28;20431;-77
2023/07/23 14:16:42;;;;;;;4.90;3.53;;;;;;;;;;5031068;28;20029;-78
2023/07/23 14:19:08;;;;;;;4.25;3.08;;;;;;;;;;5031280;28;20022;-78
2023/07/23 14:21:33;;;;;;;5.10;3.28;;;;;;;;;;5029127;28;20018;-79
2023/07/23 14:23:59;;;;;;;4.95;3.00;;;;;;;;;;5031261;28;20029;-78
2023/07/23 14:26:25;;;;;;;4.35;3.15;;;;;;;;;;5031076;28;20033;-78
2023/07/23 14:28:50;;;;;;;6.25;3.38;;;;;;;;;;5031046;28;20134;-78
2023/07/23 14:31:16;;;;;;;5.78;3.55;;;;;;;;;;5030885;28;20025;-78
2023/07/23 14:33:42;;;;;;;4.82;3.25;;;;;;;;;;5031216;28;20032;-78
2023/07/23 14:36:08;;;;;;;5.93;3.60;;;;;;;;;;5031880;28;20370;-78
2023/07/23 14:38:33;;;;;;;5.82;3.42;;;;;;;;;;5021726;28;20025;-77